Terminal Aerodrome Forecast
Issued by NWS Omaha/Valley, NE

Home | Current Version | Previous Version | Text Only | Print | Product List | Glossary On
Versions: 1 2 3 4 5 6 7 8 9 10 11 12 13 14 15 16 17 18
000
FTUS43 KOAX 291730
TAFOFK
TAF
KOFK 291730Z 2918/3018 07010KT P6SM OVC015
     FM300000 05010KT P6SM VCSH OVC015
     FM300200 04009KT 4SM -SHRA OVC015
     FM300600 04016G24KT 5SM -RA BR OVC008
     FM300900 05016G24KT 3SM -RA BR OVC007=

USA.gov is the U.S. government's official web portal to all federal, state and local government web resources and services.